»·PEaware :: N3144V KHII-KHND

N3144V :: KHII-KHND

FLIGHT INFORMATION

Flight Status: Arrived
Operator: Privately registered:
United States
More flights under this callsign
Pilot: Peter S. (28770)
Aircraft: CESSNA 172 SKYHAWK
(C172)
More flights by this aircraft type
Origin: KHII Lake Havasu City
United States
Destination: KHND Henderson
United States
More flights between these airports :: More routes between these airports
Route: +
File this flight plan on PilotEdge
Remarks:
Altitude:
(Current/Filed)
0ft
Speed:
(Current/Filed)
0kts
Departed: 08-Apr-20 05:52 PM
Arrived: 08-Apr-20 06:51 PM
Distance/Time
Traveled:
92nm/0:59
Distance/Time
To Go:
Arrived

Flight Plot

Page will automatically refresh every two minutes.

Flight plan parsing failed; only flown route is shown


Map Options




Map Legend


Flown Route
Filed Route
Departure Airport
Arrival Airport
Navaid (VOR, NDB)
Fix

Horizontal Profiles

Position Reports

Time Latitude Longitude Heading Altitude Ground
Speed
08-Apr-20 17:45 34.561215 -114.352470 323 772ft 0kts
08-Apr-20 17:46 34.561215 -114.352470 323 772ft 0kts
08-Apr-20 17:47 34.561215 -114.352470 323 772ft 0kts
08-Apr-20 17:48 34.561215 -114.352470 323 772ft 0kts
08-Apr-20 17:49 34.561215 -114.352470 323 772ft 0kts
08-Apr-20 17:50 34.561215 -114.352470 323 772ft 0kts
08-Apr-20 17:51 34.561709 -114.351863 30 779ft 11kts
08-Apr-20 17:52 34.574650 -114.359769 321 1391ft 64kts
08-Apr-20 17:53 34.588843 -114.373324 316 2293ft 65kts
08-Apr-20 17:53 34.600894 -114.383814 323 3016ft 63kts
08-Apr-20 17:55 34.610883 -114.405229 317 3965ft 63kts
08-Apr-20 17:56 34.621798 -114.419645 349 4811ft 54kts
08-Apr-20 17:56 34.632251 -114.429164 295 5358ft 63kts
08-Apr-20 17:57 34.643130 -114.445679 309 6098ft 69kts
08-Apr-20 17:59 34.654343 -114.464486 297 6743ft 72kts
08-Apr-20 18:00 34.668940 -114.480579 343 6792ft 88kts
08-Apr-20 18:00 34.689090 -114.470195 9 6838ft 100kts
08-Apr-20 18:01 34.715553 -114.478876 326 6791ft 105kts
08-Apr-20 18:03 34.751533 -114.504827 325 6142ft 114kts
08-Apr-20 18:03 34.773466 -114.520686 325 6388ft 85kts
08-Apr-20 18:04 34.793193 -114.533768 325 6636ft 61kts
08-Apr-20 18:05 34.813841 -114.547364 325 6636ft 112kts
08-Apr-20 18:06 34.843528 -114.568592 325 6628ft 125kts
08-Apr-20 18:07 34.872900 -114.589638 325 6628ft 119kts
08-Apr-20 18:08 34.901603 -114.610035 325 6629ft 118kts
08-Apr-20 18:09 34.930124 -114.629804 325 6629ft 117kts
08-Apr-20 18:10 34.955690 -114.652017 313 6765ft 120kts
08-Apr-20 18:11 34.986429 -114.676411 324 6482ft 157kts
08-Apr-20 18:12 35.020612 -114.697184 342 5398ft 89kts
08-Apr-20 18:13 35.045592 -114.700990 347 6038ft 88kts
08-Apr-20 18:14 35.070696 -114.706436 341 6641ft 92kts
08-Apr-20 18:15 35.093718 -114.717159 321 7233ft 89kts
08-Apr-20 18:16 35.112830 -114.734827 293 7822ft 82kts
08-Apr-20 18:17 35.121698 -114.759723 292 8399ft 86kts
08-Apr-20 18:18 35.147210 -114.775869 346 8255ft 163kts
08-Apr-20 18:19 35.189520 -114.771772 9 7152ft 116kts
08-Apr-20 18:20 35.220219 -114.760870 354 6155ft 87kts
08-Apr-20 18:21 35.245042 -114.775677 323 6202ft 133kts
08-Apr-20 18:22 35.279425 -114.800869 323 6195ft 149kts
08-Apr-20 18:23 35.314554 -114.826794 323 6194ft 145kts
08-Apr-20 18:24 35.348025 -114.850747 326 6073ft 149kts
08-Apr-20 18:25 35.384160 -114.861844 346 6463ft 144kts
08-Apr-20 18:26 35.420619 -114.881250 345 6607ft 144kts
08-Apr-20 18:27 35.449154 -114.885802 346 6586ft 71kts
08-Apr-20 18:28 35.474003 -114.877943 25 6141ft 137kts
08-Apr-20 18:29 35.507763 -114.869436 346 6419ft 131kts
08-Apr-20 18:30 35.547040 -114.873528 358 6401ft 146kts
08-Apr-20 18:31 35.587906 -114.875232 357 6400ft 149kts
08-Apr-20 18:32 35.629355 -114.877384 357 6397ft 149kts
08-Apr-20 18:33 35.670902 -114.879995 357 6393ft 149kts
08-Apr-20 18:34 35.711653 -114.882906 357 6470ft 140kts
08-Apr-20 18:35 35.752214 -114.886292 345 6125ft 157kts
08-Apr-20 18:36 35.785732 -114.908342 328 5741ft 127kts
08-Apr-20 18:37 35.815057 -114.928536 328 5357ft 111kts
08-Apr-20 18:38 35.841776 -114.946857 327 5337ft 108kts
08-Apr-20 18:39 35.867565 -114.964531 327 5446ft 103kts
08-Apr-20 18:40 35.896497 -114.967245 3 5472ft 107kts
08-Apr-20 18:41 35.930796 -114.966218 3 5239ft 129kts
08-Apr-20 18:42 35.959705 -114.987366 292 5007ft 133kts
08-Apr-20 18:43 35.979569 -115.023291 287 4900ft 109kts
08-Apr-20 18:44 35.995009 -115.057833 296 4529ft 117kts
08-Apr-20 18:45 36.005158 -115.086581 198 4495ft 71kts
08-Apr-20 18:46 35.987760 -115.102442 216 4341ft 89kts
08-Apr-20 18:47 35.991407 -115.130544 272 4051ft 86kts
08-Apr-20 18:48 35.992888 -115.138155 214 3500ft 52kts
08-Apr-20 18:49 35.976674 -115.135235 176 2428ft 44kts
08-Apr-20 18:50 35.975362 -115.135261 178 2423ft 7kts
08-Apr-20 18:51 35.974391 -115.136182 264 2425ft 0kts
08-Apr-20 18:52 35.974391 -115.136182 264 2425ft 0kts
08-Apr-20 18:53 35.974391 -115.136182 264 2425ft 0kts
08-Apr-20 18:54 35.974391 -115.136182 264 2425ft 0kts
08-Apr-20 18:55 35.974391 -115.136183 264 2425ft 0kts
08-Apr-20 18:56 35.974361 -115.136925 263 2424ft 0kts
08-Apr-20 18:57 35.974361 -115.136925 263 2424ft 0kts
08-Apr-20 18:58 35.974361 -115.136925 263 2424ft 0kts

Navigation Log

Ident Type
Flight plan parsing failed, navigation log unavailable